Time;durP1;ratioP1;P1;durP2;ratioP2;P2;SDS_P1;SDS_P2;PMS_P1;PMS_P2;Temp;Humidity;BMP_temperature;BMP_pressure;BME280_temperature;BME280_humidity;BME280_pressure;Samples;Min_cycle;Max_cycle;Signal;HPM_P1;HPM_P2
2021/03/25 00:01:53;;;;;;;10.30;5.82;;;2.30;66.60;;;;;;5041365;28;20021;-77
2021/03/25 00:04:19;;;;;;;9.63;5.20;;;2.30;66.70;;;;;;5053373;28;20022;-77
2021/03/25 00:06:51;;;;;;;10.05;5.55;;;2.30;66.70;;;;;;5055501;28;20033;-77
2021/03/25 00:09:37;;;;;;;11.32;5.72;;;2.20;66.60;;;;;;5059881;28;20069;-77
2021/03/25 00:12:04;;;;;;;9.13;5.30;;;2.20;66.70;;;;;;5040254;28;20456;-78
2021/03/25 00:14:30;;;;;;;10.25;5.47;;;2.20;66.70;;;;;;5035283;28;20029;-78
2021/03/25 00:16:55;;;;;;;9.68;5.28;;;2.10;66.60;;;;;;5033539;28;20037;-77
2021/03/25 00:19:21;;;;;;;8.65;5.15;;;2.10;66.70;;;;;;5034016;28;20029;-77
2021/03/25 00:21:47;;;;;;;11.18;5.70;;;2.10;66.80;;;;;;5032809;28;20018;-78
2021/03/25 00:24:16;;;;;;;10.15;5.85;;;2.10;66.90;;;;;;5032835;28;20022;-78
2021/03/25 00:26:42;;;;;;;10.98;5.75;;;2.10;66.90;;;;;;5033035;28;20083;-77
2021/03/25 00:29:11;;;;;;;10.82;5.93;;;2.10;66.80;;;;;;5032885;28;20029;-77
2021/03/25 00:31:38;;;;;;;8.75;5.22;;;2.10;66.80;;;;;;5033215;28;20053;-78
2021/03/25 00:34:04;;;;;;;9.55;5.68;;;2.10;66.70;;;;;;5031370;28;20053;-78
2021/03/25 00:36:30;;;;;;;9.10;5.35;;;2.10;66.70;;;;;;5032648;28;20087;-78
2021/03/25 00:38:58;;;;;;;8.95;4.88;;;2.10;66.60;;;;;;5032610;28;20033;-76
2021/03/25 00:41:24;;;;;;;8.52;4.88;;;2.10;66.60;;;;;;5031363;28;20068;-78
2021/03/25 00:43:50;;;;;;;11.52;5.43;;;2.10;66.60;;;;;;5032920;28;20045;-78
2021/03/25 00:46:15;;;;;;;10.45;5.57;;;2.00;66.50;;;;;;5031408;28;20025;-75
2021/03/25 00:48:41;;;;;;;8.77;5.07;;;2.00;66.50;;;;;;5031678;28;20082;-75
2021/03/25 00:51:07;;;;;;;7.93;5.25;;;2.10;66.50;;;;;;5032205;28;20479;-77
2021/03/25 00:53:35;;;;;;;10.13;5.45;;;2.10;66.50;;;;;;5032470;28;20483;-77
2021/03/25 00:56:01;;;;;;;10.30;5.03;;;2.10;66.40;;;;;;5032715;28;20107;-77
2021/03/25 00:58:27;;;;;;;8.88;4.85;;;2.10;66.40;;;;;;5036775;28;20561;-78
2021/03/25 01:00:53;;;;;;;8.68;4.95;;;2.10;66.30;;;;;;5035960;28;20025;-79
2021/03/25 01:03:24;;;;;;;8.32;4.97;;;2.10;66.00;;;;;;5035591;28;20075;-77
2021/03/25 01:05:50;;;;;;;7.47;4.45;;;2.10;66.00;;;;;;5034703;28;20030;-78
2021/03/25 01:08:16;;;;;;;8.65;4.55;;;2.00;66.00;;;;;;5034170;28;20030;-77
2021/03/25 01:10:54;;;;;;;7.45;4.57;;;2.10;65.80;;;;;;5035667;28;20029;-78
2021/03/25 01:13:39;;;;;;;9.50;4.63;;;2.10;65.70;;;;;;5035579;28;20033;-78
2021/03/25 01:16:08;;;;;;;8.07;4.55;;;2.10;65.50;;;;;;5045445;28;20029;-78
2021/03/25 01:18:34;;;;;;;8.68;5.30;;;2.10;65.50;;;;;;5039348;28;20435;-78
2021/03/25 01:21:00;;;;;;;14.05;7.47;;;2.10;65.40;;;;;;5033888;28;20072;-77
2021/03/25 01:23:26;;;;;;;18.52;7.45;;;2.10;65.30;;;;;;5035563;28;20462;-75
2021/03/25 01:25:51;;;;;;;16.25;7.32;;;2.10;65.10;;;;;;5035559;28;20483;-78
2021/03/25 01:28:18;;;;;;;15.65;7.03;;;2.10;65.00;;;;;;5034173;28;20029;-77
2021/03/25 01:30:45;;;;;;;10.32;5.60;;;2.10;65.00;;;;;;5048268;28;20021;-78
2021/03/25 01:33:13;;;;;;;23.00;10.00;;;2.00;64.90;;;;;;5035273;28;20018;-79
2021/03/25 01:35:41;;;;;;;30.15;11.68;;;2.00;65.00;;;;;;5034101;28;20029;-78
2021/03/25 01:38:11;;;;;;;20.35;8.32;;;2.00;65.10;;;;;;5033900;28;20037;-78
2021/03/25 01:40:53;;;;;;;15.40;6.90;;;2.00;65.00;;;;;;5034098;28;20021;-78
2021/03/25 01:43:22;;;;;;;12.65;6.00;;;2.00;65.10;;;;;;5035306;28;20025;-77
2021/03/25 01:45:59;;;;;;;9.18;5.13;;;2.00;65.10;;;;;;5035293;28;20061;-76
2021/03/25 01:48:37;;;;;;;7.65;4.70;;;2.00;65.30;;;;;;5035442;28;20064;-77
2021/03/25 01:51:14;;;;;;;8.30;4.50;;;2.00;65.30;;;;;;5041804;28;20018;-77
2021/03/25 01:53:59;;;;;;;10.82;5.30;;;2.00;65.50;;;;;;5053798;28;20028;-77
2021/03/25 01:56:25;;;;;;;8.68;4.70;;;1.90;65.40;;;;;;5063502;28;20073;-77
2021/03/25 01:59:26;;;;;;;8.50;4.57;;;1.90;65.50;;;;;;5045351;28;20056;-77
2021/03/25 02:02:15;;;;;;;10.60;5.00;;;1.90;65.50;;;;;;5036048;28;20025;-77
2021/03/25 02:04:47;;;;;;;9.10;4.68;;;1.90;65.70;;;;;;5034233;28;20026;-77
2021/03/25 02:07:20;;;;;;;9.23;4.88;;;1.90;65.70;;;;;;5036910;28;20372;-78
2021/03/25 02:10:06;;;;;;;8.57;4.57;;;1.90;65.80;;;;;;5042034;28;20049;-78
2021/03/25 02:12:36;;;;;;;6.90;4.35;;;1.90;65.90;;;;;;5033549;28;20030;-76
2021/03/25 02:15:02;;;;;;;10.15;5.30;;;1.90;65.90;;;;;;5043465;28;20039;-76
2021/03/25 02:17:31;;;;;;;12.75;5.05;;;1.90;65.90;;;;;;5054668;28;20461;-77
2021/03/25 02:20:11;;;;;;;8.77;4.65;;;1.90;65.80;;;;;;5054157;28;20075;-77
2021/03/25 02:23:02;;;;;;;9.55;4.93;;;1.90;65.90;;;;;;5040715;28;20053;-77
2021/03/25 02:25:46;;;;;;;11.70;5.10;;;1.90;65.90;;;;;;5042934;28;20035;-77
2021/03/25 02:28:32;;;;;;;9.70;4.70;;;1.90;65.80;;;;;;5053098;28;20025;-77
2021/03/25 02:31:18;;;;;;;9.90;4.85;;;1.90;65.70;;;;;;5054333;28;20025;-77
2021/03/25 02:33:51;;;;;;;9.35;4.57;;;1.90;65.70;;;;;;5040446;28;20020;-77
2021/03/25 02:36:21;;;;;;;9.00;4.50;;;1.80;65.70;;;;;;5054220;28;20119;-77
2021/03/25 02:38:53;;;;;;;7.35;4.65;;;1.80;65.70;;;;;;5054041;28;20021;-77
2021/03/25 02:41:31;;;;;;;7.90;4.18;;;1.80;66.20;;;;;;5054067;28;20025;-76
2021/03/25 02:44:39;;;;;;;8.52;4.63;;;1.80;65.70;;;;;;5040455;28;20048;-77
2021/03/25 02:47:10;;;;;;;9.18;5.30;;;1.80;65.70;;;;;;5043863;28;20041;-76
2021/03/25 02:50:04;;;;;;;9.30;5.80;;;1.80;65.70;;;;;;5054196;28;20079;-76
2021/03/25 02:52:39;;;;;;;10.15;5.22;;;1.80;65.80;;;;;;5044327;28;20480;-74
2021/03/25 02:55:09;;;;;;;10.35;5.50;;;1.70;65.90;;;;;;5047468;28;20036;-76
2021/03/25 02:57:42;;;;;;;8.80;5.47;;;1.70;65.90;;;;;;5039568;28;20033;-78
2021/03/25 03:00:13;;;;;;;12.10;6.60;;;1.70;65.90;;;;;;5045635;28;20052;-75
2021/03/25 03:02:42;;;;;;;14.90;7.30;;;1.70;66.00;;;;;;5052155;28;20025;-76
2021/03/25 03:05:15;;;;;;;11.00;5.88;;;1.70;66.00;;;;;;5052721;28;20032;-77
2021/03/25 03:07:58;;;;;;;18.70;8.05;;;1.70;66.10;;;;;;5053381;28;20116;-77
2021/03/25 03:10:34;;;;;;;12.32;6.18;;;1.70;66.20;;;;;;5052286;28;20506;-77
2021/03/25 03:13:02;;;;;;;13.48;6.60;;;1.70;66.10;;;;;;5053466;28;20112;-77
2021/03/25 03:15:36;;;;;;;10.77;6.13;;;1.70;66.20;;;;;;5052092;28;20025;-77
2021/03/25 03:18:39;;;;;;;13.52;7.28;;;1.70;66.10;;;;;;5041773;28;20392;-76
2021/03/25 03:21:10;;;;;;;11.20;5.55;;;1.70;66.20;;;;;;5041408;28;20483;-77
2021/03/25 03:23:36;;;;;;;11.13;5.55;;;1.70;66.20;;;;;;5053270;28;20081;-77
2021/03/25 03:26:09;;;;;;;10.00;5.32;;;1.60;66.20;;;;;;5051297;28;20036;-77
2021/03/25 03:28:48;;;;;;;10.60;4.85;;;1.70;66.30;;;;;;5051058;28;20029;-77
2021/03/25 03:31:22;;;;;;;8.90;4.82;;;1.70;66.30;;;;;;5050637;28;20064;-77
2021/03/25 03:34:02;;;;;;;12.43;5.75;;;1.70;66.30;;;;;;5053488;28;20029;-77
2021/03/25 03:36:29;;;;;;;13.85;6.60;;;1.60;66.10;;;;;;5057390;28;20548;-77
2021/03/25 03:39:04;;;;;;;12.88;6.40;;;1.60;66.10;;;;;;5061635;28;20096;-76
2021/03/25 03:42:06;;;;;;;16.25;7.10;;;1.60;66.20;;;;;;5069979;28;20092;-77
2021/03/25 03:44:40;;;;;;;14.07;6.72;;;1.60;66.30;;;;;;5073081;28;20039;-76
2021/03/25 03:47:09;;;;;;;17.38;8.05;;;1.60;66.30;;;;;;5052771;28;20029;-77
2021/03/25 03:49:44;;;;;;;17.88;8.93;;;1.60;66.20;;;;;;5069365;28;20582;-77
2021/03/25 03:52:15;;;;;;;13.65;6.57;;;1.50;66.20;;;;;;5052861;28;20075;-77
2021/03/25 03:54:43;;;;;;;12.13;6.20;;;1.50;66.30;;;;;;5054870;28;20025;-77
2021/03/25 03:57:22;;;;;;;9.18;5.57;;;1.50;66.30;;;;;;5053442;28;20392;-77
2021/03/25 04:00:02;;;;;;;9.43;4.97;;;1.50;66.40;;;;;;5053808;28;20032;-77
2021/03/25 04:02:40;;;;;;;7.70;4.43;;;1.50;66.40;;;;;;5040340;28;20025;-77
2021/03/25 04:05:14;;;;;;;7.40;4.32;;;1.50;66.50;;;;;;5052336;28;20021;-77
2021/03/25 04:07:45;;;;;;;11.27;4.82;;;1.50;66.50;;;;;;5052525;28;20079;-77
2021/03/25 04:10:42;;;;;;;8.48;4.75;;;1.50;66.60;;;;;;5052589;28;20045;-77
2021/03/25 04:13:18;;;;;;;9.45;4.53;;;1.50;66.60;;;;;;5051477;28;20032;-77
2021/03/25 04:15:49;;;;;;;8.25;4.43;;;1.50;66.70;;;;;;5051436;28;20028;-76
2021/03/25 04:18:29;;;;;;;9.02;4.82;;;1.50;66.80;;;;;;5051633;28;20498;-77
2021/03/25 04:21:01;;;;;;;10.15;5.25;;;1.50;66.70;;;;;;5051372;28;20037;-76
2021/03/25 04:23:31;;;;;;;8.73;4.95;;;1.50;66.70;;;;;;5051526;28;20094;-78
2021/03/25 04:26:24;;;;;;;9.30;4.90;;;1.50;66.80;;;;;;5051338;28;20025;-77
2021/03/25 04:28:59;;;;;;;7.78;4.78;;;1.50;66.80;;;;;;5042103;28;20124;-77
2021/03/25 04:31:28;;;;;;;10.07;5.20;;;1.60;66.80;;;;;;5055729;28;20375;-77
2021/03/25 04:33:55;;;;;;;9.32;4.75;;;1.60;66.80;;;;;;5055423;28;20025;-77
2021/03/25 04:36:24;;;;;;;8.23;4.70;;;1.60;66.70;;;;;;5054705;28;20039;-77
2021/03/25 04:38:50;;;;;;;9.57;5.10;;;1.60;66.80;;;;;;5054887;28;20021;-77
2021/03/25 04:41:17;;;;;;;8.00;4.47;;;1.70;66.90;;;;;;5054776;28;20399;-77
2021/03/25 04:43:45;;;;;;;8.75;4.45;;;1.80;66.80;;;;;;5055171;28;20036;-78
2021/03/25 04:46:14;;;;;;;8.90;5.20;;;1.80;66.80;;;;;;5055117;28;20540;-77
2021/03/25 04:48:42;;;;;;;9.18;5.32;;;1.90;66.80;;;;;;5054828;28;20028;-78
2021/03/25 04:51:15;;;;;;;9.88;4.50;;;2.00;66.80;;;;;;5054430;28;20471;-78
2021/03/25 04:53:42;;;;;;;8.40;4.80;;;2.10;66.70;;;;;;5056138;28;20371;-77
2021/03/25 04:56:23;;;;;;;9.05;4.70;;;2.20;66.50;;;;;;5056227;28;20084;-77
2021/03/25 04:58:53;;;;;;;11.05;5.60;;;2.30;66.40;;;;;;5054778;28;20033;-78
2021/03/25 05:01:24;;;;;;;9.70;5.70;;;2.40;66.40;;;;;;5055874;28;20021;-78
2021/03/25 05:03:54;;;;;;;9.90;5.40;;;2.50;66.20;;;;;;5054298;28;20459;-78
2021/03/25 05:06:24;;;;;;;9.70;5.68;;;2.50;66.00;;;;;;5056117;28;20367;-77
2021/03/25 05:08:54;;;;;;;9.85;5.25;;;2.60;65.90;;;;;;5055643;28;20423;-75
2021/03/25 05:11:23;;;;;;;10.32;5.25;;;2.70;65.80;;;;;;5045523;28;20049;-77
2021/03/25 05:13:50;;;;;;;7.07;4.32;;;2.80;65.50;;;;;;5050931;28;20025;-76
2021/03/25 05:16:16;;;;;;;9.43;4.75;;;2.90;65.20;;;;;;5055603;28;20025;-76
2021/03/25 05:19:07;;;;;;;8.15;5.15;;;2.90;64.90;;;;;;5055684;28;20450;-76
2021/03/25 05:21:43;;;;;;;11.50;5.15;;;2.90;64.60;;;;;;5033914;28;20488;-76
2021/03/25 05:24:24;;;;;;;10.10;5.22;;;2.90;64.80;;;;;;5054560;28;20061;-76
2021/03/25 05:27:04;;;;;;;9.80;5.00;;;2.90;64.80;;;;;;5048701;28;20028;-79
2021/03/25 05:29:32;;;;;;;9.95;5.78;;;2.90;64.70;;;;;;5067857;28;20029;-76
2021/03/25 05:31:58;;;;;;;11.13;5.75;;;3.00;64.70;;;;;;5066162;28;20032;-77
2021/03/25 05:34:26;;;;;;;12.85;7.05;;;3.10;64.70;;;;;;5047474;28;20032;-75
2021/03/25 05:36:56;;;;;;;14.85;7.70;;;3.10;64.40;;;;;;5065060;28;20104;-77
2021/03/25 05:39:22;;;;;;;14.63;7.07;;;3.20;64.20;;;;;;5062146;28;20006;-77
2021/03/25 05:41:52;;;;;;;15.27;6.97;;;3.20;63.90;;;;;;5067889;28;20017;-77
2021/03/25 05:44:33;;;;;;;18.98;9.13;;;3.20;63.80;;;;;;5060869;28;20029;-77
2021/03/25 05:47:07;;;;;;;17.35;8.10;;;3.20;63.80;;;;;;5059185;28;20031;-77
2021/03/25 05:49:58;;;;;;;15.43;8.02;;;3.30;63.70;;;;;;5046155;28;20043;-77
2021/03/25 05:52:33;;;;;;;11.10;6.40;;;3.30;63.80;;;;;;5048041;28;20036;-77
2021/03/25 05:55:23;;;;;;;11.30;7.37;;;3.30;63.70;;;;;;5054194;28;20056;-77
2021/03/25 05:58:20;;;;;;;11.93;6.35;;;3.40;63.70;;;;;;5053473;28;20302;-78
2021/03/25 06:01:04;;;;;;;;;;;3.40;63.40;;;;;;5041251;28;20047;-78
2021/03/25 06:03:33;;;;;;;17.35;8.85;;;3.40;64.00;;;;;;5052488;28;20271;-78
2021/03/25 06:06:01;;;;;;;17.73;8.82;;;3.50;63.40;;;;;;5054632;28;20379;-77
2021/03/25 06:08:38;;;;;;;18.02;9.90;;;3.60;63.40;;;;;;5054243;28;20171;-78
2021/03/25 06:11:15;;;;;;;18.40;9.15;;;3.70;63.30;;;;;;5052989;28;20033;-77
2021/03/25 06:14:20;;;;;;;15.02;8.05;;;3.70;62.90;;;;;;5042426;28;20105;-76
2021/03/25 06:17:11;;;;;;;18.50;9.27;;;3.80;62.60;;;;;;5042023;28;20037;-75
2021/03/25 06:19:39;;;;;;;12.32;6.85;;;3.80;62.70;;;;;;5040206;28;20491;-76
2021/03/25 06:22:26;;;;;;;12.77;7.75;;;3.90;62.60;;;;;;5047145;28;20535;-76
2021/03/25 06:25:22;;;;;;;11.90;6.15;;;4.00;62.70;;;;;;5053159;28;20375;-74
2021/03/25 06:27:53;;;;;;;10.45;5.90;;;4.10;62.70;;;;;;5038660;28;20539;-79
2021/03/25 06:30:22;;;;;;;9.40;5.68;;;4.20;62.40;;;;;;5053388;28;20046;-76
2021/03/25 06:33:03;;;;;;;11.32;5.78;;;4.20;62.10;;;;;;5038414;28;20026;-74
2021/03/25 06:35:43;;;;;;;10.98;5.80;;;4.20;61.70;;;;;;5041598;28;20479;-75
2021/03/25 06:38:18;;;;;;;9.63;6.10;;;4.20;61.60;;;;;;5052464;28;20336;-77
2021/03/25 06:41:06;;;;;;;12.30;6.57;;;4.10;61.60;;;;;;5048623;28;20035;-77
2021/03/25 06:43:37;;;;;;;10.55;5.90;;;4.10;61.60;;;;;;5052310;28;20086;-70
2021/03/25 06:46:16;;;;;;;15.95;6.68;;;4.10;61.90;;;;;;5051876;28;20032;-79
2021/03/25 06:48:47;;;;;;;11.35;6.00;;;4.10;62.00;;;;;;5043910;28;20082;-79
2021/03/25 06:51:25;;;;;;;14.63;6.00;;;4.10;62.10;;;;;;5046022;28;20818;-78
2021/03/25 06:54:08;;;;;;;16.70;5.53;;;4.10;62.00;;;;;;5043214;28;20024;-79
2021/03/25 06:56:37;;;;;;;8.85;5.28;;;4.00;61.90;;;;;;5045178;28;20042;-78
2021/03/25 06:59:09;;;;;;;10.45;5.75;;;4.00;62.10;;;;;;5050376;28;20033;-78
2021/03/25 07:01:41;;;;;;;9.23;4.70;;;4.00;62.20;;;;;;5043815;28;20112;-78
2021/03/25 07:04:19;;;;;;;7.80;5.25;;;3.90;62.10;;;;;;5036561;28;20360;-77
2021/03/25 07:06:45;;;;;;;11.70;6.00;;;3.80;62.20;;;;;;5038793;28;20035;-77
2021/03/25 07:09:11;;;;;;;10.80;5.55;;;3.80;62.40;;;;;;5047005;28;20435;-78
2021/03/25 07:11:38;;;;;;;11.88;6.18;;;3.80;62.40;;;;;;5045497;28;20468;-78
2021/03/25 07:14:10;;;;;;;11.68;6.20;;;3.80;62.50;;;;;;5053588;28;20083;-78
2021/03/25 07:16:40;;;;;;;12.48;6.15;;;3.80;62.80;;;;;;5062208;28;20045;-69
2021/03/25 07:19:11;;;;;;;11.80;5.57;;;3.90;62.80;;;;;;5042500;28;20108;-73
2021/03/25 07:21:45;;;;;;;10.88;6.18;;;4.00;62.90;;;;;;5045773;28;20032;-72
2021/03/25 07:24:12;;;;;;;9.75;5.63;;;4.00;62.80;;;;;;5057962;28;20107;-72
2021/03/25 07:26:44;;;;;;;12.77;7.10;;;4.10;62.60;;;;;;5037358;28;20033;-75
2021/03/25 07:29:10;;;;;;;13.63;7.53;;;4.00;62.50;;;;;;5047549;28;20064;-74
2021/03/25 07:31:40;;;;;;;11.35;6.57;;;4.00;62.40;;;;;;5042727;28;20385;-74
2021/03/25 07:34:07;;;;;;;11.57;5.93;;;4.00;62.40;;;;;;5048474;28;20037;-72
2021/03/25 07:36:49;;;;;;;13.90;6.07;;;3.90;62.50;;;;;;5045696;28;20028;-75
2021/03/25 07:39:22;;;;;;;15.27;6.80;;;3.90;62.70;;;;;;5044201;28;20043;-78
2021/03/25 07:41:49;;;;;;;17.23;8.18;;;3.90;62.90;;;;;;5047735;28;20028;-77
2021/03/25 07:44:36;;;;;;;13.15;6.50;;;3.80;63.10;;;;;;5046356;28;20043;-76
2021/03/25 07:47:40;;;;;;;12.45;7.47;;;3.80;63.20;;;;;;5057014;28;20024;-78
2021/03/25 07:50:25;;;;;;;12.20;7.03;;;3.90;63.40;;;;;;5049099;28;20217;-74
2021/03/25 07:52:54;;;;;;;16.05;8.48;;;3.90;63.50;;;;;;5052394;28;20056;-73
2021/03/25 07:55:27;;;;;;;16.00;8.80;;;3.90;63.60;;;;;;5034196;28;20083;-74
2021/03/25 07:57:55;;;;;;;16.42;8.50;;;3.90;63.70;;;;;;5047408;28;20065;-74
2021/03/25 08:00:31;;;;;;;12.45;7.05;;;3.90;63.90;;;;;;5049404;28;20459;-74
2021/03/25 08:03:29;;;;;;;13.65;6.80;;;3.90;63.90;;;;;;5044546;28;20422;-74
2021/03/25 08:05:54;;;;;;;14.45;7.70;;;3.90;63.90;;;;;;5040871;28;20018;-73
2021/03/25 08:08:38;;;;;;;14.75;7.30;;;3.90;63.90;;;;;;5043747;28;20021;-72
2021/03/25 08:11:22;;;;;;;16.25;8.18;;;3.90;64.10;;;;;;5040853;28;20033;-75
2021/03/25 08:13:57;;;;;;;23.20;10.20;;;3.90;64.10;;;;;;5051191;28;20029;-75
2021/03/25 08:16:26;;;;;;;16.20;7.75;;;3.90;64.10;;;;;;5049667;28;20048;-78
2021/03/25 08:19:30;;;;;;;16.42;7.95;;;4.00;64.10;;;;;;5049110;28;20111;-75
2021/03/25 08:22:10;;;;;;;13.18;7.18;;;4.00;64.20;;;;;;5040431;28;20098;-84
2021/03/25 08:24:48;;;;;;;10.55;5.88;;;4.10;64.30;;;;;;5047700;28;20040;-70
2021/03/25 08:27:29;;;;;;;12.52;5.80;;;4.10;64.30;;;;;;5050520;28;20064;-80
2021/03/25 08:30:15;;;;;;;9.48;5.82;;;4.10;64.00;;;;;;5038943;28;20602;-83
2021/03/25 08:32:56;;;;;;;10.75;5.65;;;4.10;64.00;;;;;;5039168;28;20029;-74
2021/03/25 08:35:36;;;;;;;11.07;5.85;;;4.10;64.20;;;;;;5043127;28;20048;-73
2021/03/25 08:38:08;;;;;;;9.93;5.63;;;4.10;64.10;;;;;;5043995;28;20115;-73
2021/03/25 08:40:46;;;;;;;9.65;5.43;;;4.20;64.20;;;;;;5043811;28;20045;-74
2021/03/25 08:43:32;;;;;;;10.00;5.50;;;4.20;64.40;;;;;;5050523;28;20486;-71
2021/03/25 08:46:27;;;;;;;13.15;6.20;;;4.30;64.40;;;;;;5046303;28;20029;-71
2021/03/25 08:49:09;;;;;;;9.75;5.57;;;4.40;64.30;;;;;;5043444;28;20033;-72
2021/03/25 08:51:39;;;;;;;9.63;5.13;;;4.50;64.10;;;;;;5043041;28;20075;-73
2021/03/25 08:54:19;;;;;;;10.57;5.95;;;4.50;63.90;;;;;;5038350;28;20057;-70
2021/03/25 08:57:05;;;;;;;12.70;5.82;;;4.50;63.80;;;;;;5044683;28;20119;-71
2021/03/25 08:59:38;;;;;;;9.10;5.28;;;4.60;63.90;;;;;;5048523;28;20032;-71
2021/03/25 09:02:14;;;;;;;12.95;5.95;;;4.60;63.80;;;;;;5048466;28;20041;-71
2021/03/25 09:05:06;;;;;;;13.18;6.10;;;4.60;64.00;;;;;;5055164;28;20068;-77
2021/03/25 09:07:34;;;;;;;10.23;5.47;;;4.60;63.90;;;;;;5057719;28;20042;-74
2021/03/25 09:10:09;;;;;;;10.77;5.53;;;4.60;63.70;;;;;;5052894;28;20135;-73
2021/03/25 09:12:35;;;;;;;10.27;6.20;;;4.60;63.70;;;;;;5043913;28;20036;-71
2021/03/25 09:15:07;;;;;;;8.38;5.75;;;4.70;63.70;;;;;;5038890;28;20044;-72
2021/03/25 09:17:39;;;;;;;11.15;5.72;;;4.60;63.70;;;;;;5041073;28;20073;-73
2021/03/25 09:20:11;;;;;;;13.73;6.53;;;4.70;63.70;;;;;;5037744;28;20040;-72
2021/03/25 09:22:45;;;;;;;11.75;6.18;;;4.70;63.60;;;;;;5045254;28;20025;-72
2021/03/25 09:25:19;;;;;;;10.05;5.93;;;4.70;63.60;;;;;;5047186;28;20028;-74
2021/03/25 09:28:17;;;;;;;12.18;6.30;;;4.80;63.80;;;;;;5046599;28;20067;-74
2021/03/25 09:31:06;;;;;;;14.27;6.40;;;4.90;63.60;;;;;;5044672;28;20037;-74
2021/03/25 09:33:56;;;;;;;10.52;5.50;;;5.10;63.70;;;;;;5050049;28;20039;-72
2021/03/25 09:36:21;;;;;;;9.65;4.97;;;5.10;63.30;;;;;;5044161;28;20471;-72
2021/03/25 09:38:59;;;;;;;8.75;5.15;;;5.20;63.00;;;;;;5041058;28;20037;-73
2021/03/25 09:41:25;;;;;;;12.60;6.40;;;5.20;62.90;;;;;;5044147;28;20025;-71
2021/03/25 09:44:14;;;;;;;8.73;5.40;;;5.20;62.90;;;;;;5042156;28;20482;-72
2021/03/25 09:46:43;;;;;;;11.43;5.60;;;5.30;63.00;;;;;;5044692;28;20021;-72
2021/03/25 09:49:27;;;;;;;9.73;5.40;;;5.30;63.10;;;;;;5041904;28;20032;-74
2021/03/25 09:52:08;;;;;;;10.50;6.18;;;5.30;62.90;;;;;;5049231;28;20029;-71
2021/03/25 09:54:41;;;;;;;14.65;6.65;;;5.40;63.00;;;;;;5049031;28;20494;-74
2021/03/25 09:57:35;;;;;;;11.93;5.75;;;5.40;62.80;;;;;;5049925;28;20128;-72
2021/03/25 10:00:13;;;;;;;12.15;6.50;;;5.40;62.70;;;;;;5041809;28;20378;-73
2021/03/25 10:02:43;;;;;;;13.10;7.55;;;5.50;62.80;;;;;;5038904;28;20036;-72
2021/03/25 10:05:25;;;;;;;10.80;6.18;;;5.50;62.90;;;;;;5044175;28;20029;-73
2021/03/25 10:08:03;;;;;;;12.25;6.07;;;5.60;63.00;;;;;;5045222;28;20086;-72
2021/03/25 10:10:38;;;;;;;8.70;5.50;;;5.70;63.10;;;;;;5044831;28;20041;-73
2021/03/25 10:13:05;;;;;;;11.27;5.45;;;5.80;62.90;;;;;;5046235;28;20025;-74
2021/03/25 10:15:31;;;;;;;10.95;6.18;;;5.90;62.80;;;;;;5042003;28;20525;-73
2021/03/25 10:18:03;;;;;;;11.52;5.80;;;6.00;62.70;;;;;;5042636;28;20128;-73
2021/03/25 10:20:53;;;;;;;11.63;6.15;;;6.00;62.40;;;;;;5047984;28;20029;-73
2021/03/25 10:23:29;;;;;;;15.98;7.47;;;6.10;62.10;;;;;;5047965;28;20119;-72
2021/03/25 10:26:04;;;;;;;14.00;7.07;;;6.20;62.00;;;;;;5041440;28;20522;-74
2021/03/25 10:28:34;;;;;;;11.73;7.07;;;6.20;61.80;;;;;;5042885;28;20032;-74
2021/03/25 10:31:07;;;;;;;14.98;7.30;;;6.30;61.70;;;;;;5044972;28;20471;-75
2021/03/25 10:33:35;;;;;;;14.15;7.57;;;6.40;61.70;;;;;;5034431;28;20072;-72
2021/03/25 10:36:10;;;;;;;15.20;7.22;;;6.50;61.60;;;;;;5038499;28;20064;-73
2021/03/25 10:39:01;;;;;;;15.10;8.17;;;6.60;61.50;;;;;;5043154;28;20458;-72
2021/03/25 10:41:37;;;;;;;13.07;6.20;;;6.70;61.50;;;;;;5043919;28;20033;-71
2021/03/25 10:44:33;;;;;;;11.70;6.90;;;6.80;61.40;;;;;;5037010;28;20112;-74
2021/03/25 10:47:05;;;;;;;13.48;6.28;;;6.80;61.20;;;;;;5042221;28;20033;-81
2021/03/25 10:49:49;;;;;;;12.05;6.53;;;6.90;61.20;;;;;;5051286;28;20025;-73
2021/03/25 10:52:48;;;;;;;9.40;5.50;;;7.10;61.30;;;;;;5051158;28;20025;-73
2021/03/25 10:55:27;;;;;;;10.55;5.50;;;7.20;61.00;;;;;;5054119;28;20056;-72
2021/03/25 10:57:54;;;;;;;10.55;5.28;;;7.40;60.70;;;;;;5045901;28;20380;-71
2021/03/25 11:00:29;;;;;;;12.60;6.85;;;7.50;60.60;;;;;;5049585;28;20549;-72
2021/03/25 11:02:56;;;;;;;14.93;7.18;;;7.60;60.20;;;;;;5039855;28;20095;-74
2021/03/25 11:05:23;;;;;;;13.27;7.03;;;7.70;60.10;;;;;;5040240;28;20032;-72
2021/03/25 11:07:50;;;;;;;14.32;6.88;;;7.80;60.10;;;;;;5042232;28;20056;-72
2021/03/25 11:10:31;;;;;;;11.43;6.07;;;7.90;60.00;;;;;;5032194;28;20064;-71
2021/03/25 11:13:00;;;;;;;9.15;5.65;;;7.90;59.80;;;;;;5041451;28;20025;-71
2021/03/25 11:15:47;;;;;;;11.98;5.95;;;7.90;59.60;;;;;;5045141;28;20025;-73
2021/03/25 11:18:23;;;;;;;10.40;5.65;;;7.90;59.60;;;;;;5043928;28;20040;-72
2021/03/25 11:20:51;;;;;;;9.05;5.00;;;8.00;59.60;;;;;;5047180;28;20052;-75
2021/03/25 11:23:20;;;;;;;12.82;6.32;;;8.00;59.50;;;;;;5047761;28;20028;-76
2021/03/25 11:25:47;;;;;;;12.23;5.93;;;8.00;59.50;;;;;;5046811;28;20088;-80
2021/03/25 11:28:17;;;;;;;19.65;9.07;;;8.00;59.70;;;;;;5034138;28;20041;-80
2021/03/25 11:30:56;;;;;;;22.92;10.00;;;8.00;59.70;;;;;;5043049;28;20032;-74
2021/03/25 11:33:28;;;;;;;25.40;10.00;;;8.00;59.80;;;;;;5040243;28;20029;-71
2021/03/25 11:35:55;;;;;;;13.38;7.55;;;8.00;59.80;;;;;;5043082;28;20179;-72
2021/03/25 11:38:29;;;;;;;13.07;7.25;;;8.00;59.80;;;;;;5040201;28;20032;-72
2021/03/25 11:41:04;;;;;;;15.45;8.95;;;8.00;59.70;;;;;;5036988;28;20379;-74
2021/03/25 11:43:54;;;;;;;18.02;10.68;;;8.00;59.80;;;;;;5049957;28;20466;-80
2021/03/25 11:46:33;;;;;;;13.85;7.10;;;8.00;59.80;;;;;;5036443;28;20029;-79
2021/03/25 11:49:17;;;;;;;12.45;6.93;;;8.00;59.80;;;;;;5042263;28;20025;-81
2021/03/25 11:52:03;;;;;;;13.27;6.32;;;8.10;59.90;;;;;;5033805;28;21558;-80
2021/03/25 11:54:31;;;;;;;13.80;6.20;;;8.10;59.90;;;;;;5032597;28;20029;-78
2021/03/25 11:57:20;;;;;;;14.27;5.82;;;8.10;60.00;;;;;;5031935;28;20484;-79
2021/03/25 11:59:45;;;;;;;9.77;5.03;;;8.20;60.00;;;;;;5033039;28;20041;-79
2021/03/25 12:02:17;;;;;;;8.57;4.53;;;8.20;60.00;;;;;;5045732;28;20487;-81
2021/03/25 12:04:43;;;;;;;10.77;5.10;;;8.30;60.00;;;;;;5037424;28;20037;-79
2021/03/25 12:07:12;;;;;;;10.23;5.30;;;8.30;60.00;;;;;;5046261;28;20027;-79
2021/03/25 12:10:03;;;;;;;9.25;5.47;;;8.40;59.90;;;;;;5040961;28;20049;-79
2021/03/25 12:12:29;;;;;;;9.90;5.05;;;8.50;59.70;;;;;;5045540;28;20029;-83
2021/03/25 12:14:55;;;;;;;13.50;6.68;;;8.50;59.90;;;;;;5034849;28;20112;-79
2021/03/25 12:17:21;;;;;;;11.55;5.82;;;8.70;59.90;;;;;;5054349;28;20061;-84
2021/03/25 12:19:47;;;;;;;11.38;6.30;;;8.70;59.60;;;;;;5042866;28;20029;-78
2021/03/25 12:22:22;;;;;;;14.23;6.80;;;8.80;59.60;;;;;;5042597;28;20116;-79
2021/03/25 12:24:48;;;;;;;9.63;5.53;;;8.90;59.50;;;;;;5048217;28;20158;-80
2021/03/25 12:27:20;;;;;;;13.75;6.88;;;9.00;59.50;;;;;;5042162;28;20034;-79
2021/03/25 12:29:46;;;;;;;12.63;6.95;;;9.10;59.20;;;;;;5038943;28;20021;-82
2021/03/25 12:32:14;;;;;;;11.95;6.53;;;9.20;59.30;;;;;;5049419;28;20367;-78
2021/03/25 12:34:39;;;;;;;11.93;7.25;;;9.30;59.00;;;;;;5044390;28;20037;-82
2021/03/25 12:37:05;;;;;;;10.57;6.45;;;9.50;58.90;;;;;;5045949;28;20041;-80
2021/03/25 12:39:31;;;;;;;10.80;5.90;;;9.60;58.60;;;;;;5050096;28;20025;-82
2021/03/25 12:41:58;;;;;;;14.43;7.68;;;9.70;58.50;;;;;;5050515;28;20118;-79
2021/03/25 12:44:24;;;;;;;14.40;7.40;;;9.80;58.20;;;;;;5039975;28;20057;-78
2021/03/25 12:46:49;;;;;;;11.48;5.97;;;9.90;58.20;;;;;;5040617;28;20427;-80
2021/03/25 12:49:15;;;;;;;16.77;9.70;;;10.00;58.00;;;;;;5038617;28;20068;-80
2021/03/25 12:51:41;;;;;;;21.13;11.13;;;10.00;58.20;;;;;;5038001;28;20029;-80
2021/03/25 12:54:07;;;;;;;16.02;9.10;;;9.90;57.60;;;;;;5038361;28;20025;-83
2021/03/25 12:56:35;;;;;;;18.13;9.13;;;9.90;57.70;;;;;;5039697;28;20029;-79
2021/03/25 12:59:04;;;;;;;12.07;7.32;;;9.90;57.70;;;;;;5045448;28;20030;-82
2021/03/25 13:01:30;;;;;;;10.63;6.53;;;9.90;57.60;;;;;;5041023;28;20094;-80
2021/03/25 13:03:56;;;;;;;12.45;7.50;;;9.80;57.40;;;;;;5037675;28;20040;-84
2021/03/25 13:06:23;;;;;;;13.75;7.05;;;9.80;57.50;;;;;;5040293;28;20032;-79
2021/03/25 13:08:50;;;;;;;12.35;6.22;;;9.80;57.50;;;;;;5042991;28;20052;-77
2021/03/25 13:11:18;;;;;;;14.30;5.63;;;9.80;57.50;;;;;;5059194;28;20490;-82
2021/03/25 13:13:45;;;;;;;7.50;4.60;;;9.80;57.50;;;;;;5050057;28;20048;-77
2021/03/25 13:16:12;;;;;;;10.27;5.40;;;9.80;57.30;;;;;;5050129;28;20041;-79
2021/03/25 13:18:38;;;;;;;9.80;6.00;;;9.80;57.30;;;;;;5036673;28;20487;-83
2021/03/25 13:21:05;;;;;;;9.00;5.05;;;9.70;57.40;;;;;;5048931;28;20055;-83
2021/03/25 13:23:32;;;;;;;9.35;4.93;;;9.70;57.40;;;;;;5045592;28;20027;-80
2021/03/25 13:25:58;;;;;;;7.35;4.50;;;9.70;57.30;;;;;;5038040;28;20049;-78
2021/03/25 13:28:24;;;;;;;6.70;4.28;;;9.70;57.30;;;;;;5049437;28;20033;-82